sensor_id;sensor_type;location;lat;lon;timestamp;P1;durP1;ratioP1;P2;durP2;ratioP2
18716;SDS011;9487;50.892;6.906;2022-08-25T00:01:45;4.53;;;3.50;;
18716;SDS011;9487;50.892;6.906;2022-08-25T00:04:16;3.75;;;3.40;;
18716;SDS011;9487;50.892;6.906;2022-08-25T00:06:44;3.33;;;3.00;;
18716;SDS011;9487;50.892;6.906;2022-08-25T00:09:13;4.22;;;3.45;;
18716;SDS011;9487;50.892;6.906;2022-08-25T00:11:42;4.35;;;3.63;;
18716;SDS011;9487;50.892;6.906;2022-08-25T00:14:12;3.47;;;3.20;;
18716;SDS011;9487;50.892;6.906;2022-08-25T00:16:41;3.35;;;3.15;;
18716;SDS011;9487;50.892;6.906;2022-08-25T00:19:09;3.85;;;3.42;;
18716;SDS011;9487;50.892;6.906;2022-08-25T00:21:40;4.20;;;3.33;;
18716;SDS011;9487;50.892;6.906;2022-08-25T00:24:08;5.25;;;3.42;;
18716;SDS011;9487;50.892;6.906;2022-08-25T00:26:37;3.30;;;3.00;;
18716;SDS011;9487;50.892;6.906;2022-08-25T00:29:05;6.13;;;3.20;;
18716;SDS011;9487;50.892;6.906;2022-08-25T00:31:32;4.53;;;3.30;;
18716;SDS011;9487;50.892;6.906;2022-08-25T00:33:59;2.95;;;2.75;;
18716;SDS011;9487;50.892;6.906;2022-08-25T00:36:26;3.40;;;3.10;;
18716;SDS011;9487;50.892;6.906;2022-08-25T00:38:55;3.60;;;3.30;;
18716;SDS011;9487;50.892;6.906;2022-08-25T00:41:22;3.43;;;3.10;;
18716;SDS011;9487;50.892;6.906;2022-08-25T00:43:51;3.27;;;2.97;;
18716;SDS011;9487;50.892;6.906;2022-08-25T00:46:20;3.33;;;3.03;;
18716;SDS011;9487;50.892;6.906;2022-08-25T00:48:50;4.27;;;3.00;;
18716;SDS011;9487;50.892;6.906;2022-08-25T00:51:24;4.07;;;3.13;;
18716;SDS011;9487;50.892;6.906;2022-08-25T00:53:59;4.57;;;2.83;;
18716;SDS011;9487;50.892;6.906;2022-08-25T00:56:27;3.53;;;2.83;;
18716;SDS011;9487;50.892;6.906;2022-08-25T00:58:55;3.43;;;2.80;;
18716;SDS011;9487;50.892;6.906;2022-08-25T01:01:23;3.17;;;2.88;;
18716;SDS011;9487;50.892;6.906;2022-08-25T01:03:51;3.03;;;2.72;;
18716;SDS011;9487;50.892;6.906;2022-08-25T01:06:18;4.77;;;3.37;;
18716;SDS011;9487;50.892;6.906;2022-08-25T01:08:45;3.45;;;3.13;;
18716;SDS011;9487;50.892;6.906;2022-08-25T01:11:14;3.50;;;2.90;;
18716;SDS011;9487;50.892;6.906;2022-08-25T01:13:42;4.10;;;2.90;;
18716;SDS011;9487;50.892;6.906;2022-08-25T01:16:11;3.00;;;2.80;;
18716;SDS011;9487;50.892;6.906;2022-08-25T01:18:42;3.10;;;2.80;;
18716;SDS011;9487;50.892;6.906;2022-08-25T01:21:15;4.90;;;3.40;;
18716;SDS011;9487;50.892;6.906;2022-08-25T01:23:43;4.33;;;3.00;;
18716;SDS011;9487;50.892;6.906;2022-08-25T01:26:11;6.10;;;3.33;;
18716;SDS011;9487;50.892;6.906;2022-08-25T01:28:42;3.40;;;3.10;;
18716;SDS011;9487;50.892;6.906;2022-08-25T01:31:24;3.47;;;3.17;;
18716;SDS011;9487;50.892;6.906;2022-08-25T01:33:51;4.87;;;3.30;;
18716;SDS011;9487;50.892;6.906;2022-08-25T01:36:20;3.20;;;2.90;;
18716;SDS011;9487;50.892;6.906;2022-08-25T01:38:48;3.47;;;3.17;;
18716;SDS011;9487;50.892;6.906;2022-08-25T01:41:15;3.00;;;2.80;;
18716;SDS011;9487;50.892;6.906;2022-08-25T01:43:46;3.43;;;3.13;;
18716;SDS011;9487;50.892;6.906;2022-08-25T01:46:13;3.10;;;2.80;;
18716;SDS011;9487;50.892;6.906;2022-08-25T01:48:40;3.20;;;2.90;;
18716;SDS011;9487;50.892;6.906;2022-08-25T01:51:07;3.13;;;2.93;;
18716;SDS011;9487;50.892;6.906;2022-08-25T01:53:35;3.37;;;3.07;;
18716;SDS011;9487;50.892;6.906;2022-08-25T01:56:09;3.60;;;3.30;;
18716;SDS011;9487;50.892;6.906;2022-08-25T01:58:38;3.13;;;2.93;;
18716;SDS011;9487;50.892;6.906;2022-08-25T02:01:09;4.20;;;3.23;;
18716;SDS011;9487;50.892;6.906;2022-08-25T02:03:40;3.43;;;3.13;;
18716;SDS011;9487;50.892;6.906;2022-08-25T02:06:09;3.40;;;3.10;;
18716;SDS011;9487;50.892;6.906;2022-08-25T02:08:39;3.90;;;3.37;;
18716;SDS011;9487;50.892;6.906;2022-08-25T02:11:09;3.40;;;3.10;;
18716;SDS011;9487;50.892;6.906;2022-08-25T02:13:37;4.67;;;3.47;;
18716;SDS011;9487;50.892;6.906;2022-08-25T02:16:04;3.60;;;3.37;;
18716;SDS011;9487;50.892;6.906;2022-08-25T02:18:32;3.77;;;3.47;;
18716;SDS011;9487;50.892;6.906;2022-08-25T02:20:59;4.23;;;3.37;;
18716;SDS011;9487;50.892;6.906;2022-08-25T02:23:26;4.43;;;3.00;;
18716;SDS011;9487;50.892;6.906;2022-08-25T02:25:55;3.43;;;3.03;;
18716;SDS011;9487;50.892;6.906;2022-08-25T02:28:22;3.90;;;3.60;;
18716;SDS011;9487;50.892;6.906;2022-08-25T02:30:49;3.63;;;3.03;;
18716;SDS011;9487;50.892;6.906;2022-08-25T02:33:17;3.53;;;3.23;;
18716;SDS011;9487;50.892;6.906;2022-08-25T02:35:44;4.53;;;3.20;;
18716;SDS011;9487;50.892;6.906;2022-08-25T02:38:10;3.37;;;3.07;;
18716;SDS011;9487;50.892;6.906;2022-08-25T02:40:37;3.70;;;3.40;;
18716;SDS011;9487;50.892;6.906;2022-08-25T02:43:06;4.27;;;3.27;;
18716;SDS011;9487;50.892;6.906;2022-08-25T02:45:33;3.97;;;3.37;;
18716;SDS011;9487;50.892;6.906;2022-08-25T02:48:00;3.23;;;2.80;;
18716;SDS011;9487;50.892;6.906;2022-08-25T02:50:28;3.87;;;2.90;;
18716;SDS011;9487;50.892;6.906;2022-08-25T02:52:56;3.90;;;3.03;;
18716;SDS011;9487;50.892;6.906;2022-08-25T02:55:23;3.27;;;3.03;;
18716;SDS011;9487;50.892;6.906;2022-08-25T02:57:50;3.30;;;3.00;;
18716;SDS011;9487;50.892;6.906;2022-08-25T03:00:18;3.40;;;3.10;;
18716;SDS011;9487;50.892;6.906;2022-08-25T03:02:45;3.40;;;2.87;;
18716;SDS011;9487;50.892;6.906;2022-08-25T03:05:13;4.00;;;2.80;;
18716;SDS011;9487;50.892;6.906;2022-08-25T03:07:40;3.13;;;2.93;;
18716;SDS011;9487;50.892;6.906;2022-08-25T03:10:08;3.60;;;3.30;;
18716;SDS011;9487;50.892;6.906;2022-08-25T03:12:37;3.30;;;3.00;;
18716;SDS011;9487;50.892;6.906;2022-08-25T03:15:06;3.40;;;3.10;;
18716;SDS011;9487;50.892;6.906;2022-08-25T03:17:35;3.50;;;3.20;;
18716;SDS011;9487;50.892;6.906;2022-08-25T03:20:03;3.57;;;3.27;;
18716;SDS011;9487;50.892;6.906;2022-08-25T03:22:30;3.97;;;3.40;;
18716;SDS011;9487;50.892;6.906;2022-08-25T03:24:58;4.10;;;3.40;;
18716;SDS011;9487;50.892;6.906;2022-08-25T03:27:45;3.30;;;3.00;;
18716;SDS011;9487;50.892;6.906;2022-08-25T03:30:13;3.97;;;3.20;;
18716;SDS011;9487;50.892;6.906;2022-08-25T03:32:42;3.50;;;3.20;;
18716;SDS011;9487;50.892;6.906;2022-08-25T03:35:10;3.80;;;2.90;;
18716;SDS011;9487;50.892;6.906;2022-08-25T03:37:37;3.60;;;3.27;;
18716;SDS011;9487;50.892;6.906;2022-08-25T03:40:05;4.20;;;3.03;;
18716;SDS011;9487;50.892;6.906;2022-08-25T03:42:34;4.00;;;3.20;;
18716;SDS011;9487;50.892;6.906;2022-08-25T03:45:01;3.67;;;3.27;;
18716;SDS011;9487;50.892;6.906;2022-08-25T03:47:29;3.37;;;3.07;;
18716;SDS011;9487;50.892;6.906;2022-08-25T03:49:57;3.53;;;3.23;;
18716;SDS011;9487;50.892;6.906;2022-08-25T03:52:24;4.00;;;3.03;;
18716;SDS011;9487;50.892;6.906;2022-08-25T03:54:51;3.53;;;3.30;;
18716;SDS011;9487;50.892;6.906;2022-08-25T03:57:18;3.40;;;3.10;;
18716;SDS011;9487;50.892;6.906;2022-08-25T03:59:45;4.03;;;3.10;;
18716;SDS011;9487;50.892;6.906;2022-08-25T04:02:12;4.47;;;3.57;;
18716;SDS011;9487;50.892;6.906;2022-08-25T04:04:39;3.97;;;3.40;;
18716;SDS011;9487;50.892;6.906;2022-08-25T04:07:07;3.90;;;3.50;;
18716;SDS011;9487;50.892;6.906;2022-08-25T04:09:34;3.83;;;2.97;;
18716;SDS011;9487;50.892;6.906;2022-08-25T04:12:01;4.37;;;3.40;;
18716;SDS011;9487;50.892;6.906;2022-08-25T04:14:29;3.77;;;3.40;;
18716;SDS011;9487;50.892;6.906;2022-08-25T04:16:56;4.03;;;3.20;;
18716;SDS011;9487;50.892;6.906;2022-08-25T04:19:23;8.50;;;3.67;;
18716;SDS011;9487;50.892;6.906;2022-08-25T04:21:50;4.20;;;3.73;;
18716;SDS011;9487;50.892;6.906;2022-08-25T04:24:19;4.93;;;3.33;;
18716;SDS011;9487;50.892;6.906;2022-08-25T04:26:47;5.07;;;3.20;;
18716;SDS011;9487;50.892;6.906;2022-08-25T04:29:16;4.43;;;4.00;;
18716;SDS011;9487;50.892;6.906;2022-08-25T04:31:45;4.10;;;3.30;;
18716;SDS011;9487;50.892;6.906;2022-08-25T04:34:14;4.70;;;3.87;;
18716;SDS011;9487;50.892;6.906;2022-08-25T04:36:41;3.83;;;3.20;;
18716;SDS011;9487;50.892;6.906;2022-08-25T04:39:08;3.90;;;3.50;;
18716;SDS011;9487;50.892;6.906;2022-08-25T04:41:37;4.53;;;4.13;;
18716;SDS011;9487;50.892;6.906;2022-08-25T04:44:04;4.90;;;3.60;;
18716;SDS011;9487;50.892;6.906;2022-08-25T04:46:32;3.60;;;3.20;;
18716;SDS011;9487;50.892;6.906;2022-08-25T04:49:00;3.90;;;3.50;;
18716;SDS011;9487;50.892;6.906;2022-08-25T04:51:28;4.33;;;3.40;;
18716;SDS011;9487;50.892;6.906;2022-08-25T04:53:57;5.43;;;3.50;;
18716;SDS011;9487;50.892;6.906;2022-08-25T04:56:26;3.87;;;3.43;;
18716;SDS011;9487;50.892;6.906;2022-08-25T04:58:55;4.43;;;4.00;;
18716;SDS011;9487;50.892;6.906;2022-08-25T05:01:23;4.23;;;3.83;;
18716;SDS011;9487;50.892;6.906;2022-08-25T05:03:52;5.07;;;3.63;;
18716;SDS011;9487;50.892;6.906;2022-08-25T05:06:22;3.87;;;3.40;;
18716;SDS011;9487;50.892;6.906;2022-08-25T05:08:49;5.27;;;3.47;;
18716;SDS011;9487;50.892;6.906;2022-08-25T05:11:16;4.63;;;3.67;;
18716;SDS011;9487;50.892;6.906;2022-08-25T05:13:44;5.43;;;3.27;;
18716;SDS011;9487;50.892;6.906;2022-08-25T05:16:13;4.77;;;3.50;;
18716;SDS011;9487;50.892;6.906;2022-08-25T05:18:41;3.90;;;3.50;;
18716;SDS011;9487;50.892;6.906;2022-08-25T05:21:09;4.33;;;3.90;;
18716;SDS011;9487;50.892;6.906;2022-08-25T05:23:38;5.57;;;4.13;;
18716;SDS011;9487;50.892;6.906;2022-08-25T05:26:06;6.83;;;4.00;;
18716;SDS011;9487;50.892;6.906;2022-08-25T05:28:35;4.87;;;4.13;;
18716;SDS011;9487;50.892;6.906;2022-08-25T05:31:02;4.93;;;3.80;;
18716;SDS011;9487;50.892;6.906;2022-08-25T05:33:31;4.57;;;4.13;;
18716;SDS011;9487;50.892;6.906;2022-08-25T05:35:58;3.93;;;3.60;;
18716;SDS011;9487;50.892;6.906;2022-08-25T05:38:25;4.17;;;3.73;;
18716;SDS011;9487;50.892;6.906;2022-08-25T05:40:55;5.80;;;3.67;;
18716;SDS011;9487;50.892;6.906;2022-08-25T05:43:23;5.33;;;4.33;;
18716;SDS011;9487;50.892;6.906;2022-08-25T05:45:52;8.50;;;4.40;;
18716;SDS011;9487;50.892;6.906;2022-08-25T05:48:18;7.03;;;4.30;;
18716;SDS011;9487;50.892;6.906;2022-08-25T05:50:51;5.20;;;3.90;;
18716;SDS011;9487;50.892;6.906;2022-08-25T05:53:18;5.60;;;3.90;;
18716;SDS011;9487;50.892;6.906;2022-08-25T05:55:46;4.90;;;4.10;;
18716;SDS011;9487;50.892;6.906;2022-08-25T05:58:13;5.03;;;4.00;;
18716;SDS011;9487;50.892;6.906;2022-08-25T06:00:40;5.57;;;4.20;;
18716;SDS011;9487;50.892;6.906;2022-08-25T06:03:07;5.73;;;4.57;;
18716;SDS011;9487;50.892;6.906;2022-08-25T06:05:33;5.50;;;3.90;;
18716;SDS011;9487;50.892;6.906;2022-08-25T06:08:01;4.23;;;3.87;;
18716;SDS011;9487;50.892;6.906;2022-08-25T06:10:29;5.30;;;4.10;;
18716;SDS011;9487;50.892;6.906;2022-08-25T06:12:55;4.70;;;4.30;;
18716;SDS011;9487;50.892;6.906;2022-08-25T06:15:23;4.53;;;4.13;;
18716;SDS011;9487;50.892;6.906;2022-08-25T06:17:50;5.57;;;3.83;;
18716;SDS011;9487;50.892;6.906;2022-08-25T06:20:19;5.50;;;4.18;;
18716;SDS011;9487;50.892;6.906;2022-08-25T06:22:49;4.20;;;3.80;;
18716;SDS011;9487;50.892;6.906;2022-08-25T06:25:19;5.70;;;4.03;;
18716;SDS011;9487;50.892;6.906;2022-08-25T06:27:47;4.70;;;4.30;;
18716;SDS011;9487;50.892;6.906;2022-08-25T06:30:15;4.93;;;3.78;;
18716;SDS011;9487;50.892;6.906;2022-08-25T06:32:45;4.50;;;4.10;;
18716;SDS011;9487;50.892;6.906;2022-08-25T06:35:14;5.55;;;4.45;;
18716;SDS011;9487;50.892;6.906;2022-08-25T06:37:43;4.65;;;4.22;;
18716;SDS011;9487;50.892;6.906;2022-08-25T06:40:10;6.55;;;4.00;;
18716;SDS011;9487;50.892;6.906;2022-08-25T06:42:39;6.13;;;4.45;;
18716;SDS011;9487;50.892;6.906;2022-08-25T06:45:06;6.65;;;4.10;;
18716;SDS011;9487;50.892;6.906;2022-08-25T06:47:34;5.57;;;4.00;;
18716;SDS011;9487;50.892;6.906;2022-08-25T06:50:01;7.05;;;4.15;;
18716;SDS011;9487;50.892;6.906;2022-08-25T06:52:28;4.82;;;4.40;;
18716;SDS011;9487;50.892;6.906;2022-08-25T06:54:55;8.98;;;4.43;;
18716;SDS011;9487;50.892;6.906;2022-08-25T06:57:22;7.15;;;4.22;;
18716;SDS011;9487;50.892;6.906;2022-08-25T06:59:50;4.30;;;3.90;;
18716;SDS011;9487;50.892;6.906;2022-08-25T07:02:17;4.93;;;3.80;;
18716;SDS011;9487;50.892;6.906;2022-08-25T07:04:44;6.47;;;4.07;;
18716;SDS011;9487;50.892;6.906;2022-08-25T07:07:11;5.30;;;4.07;;
18716;SDS011;9487;50.892;6.906;2022-08-25T07:09:38;4.32;;;3.70;;
18716;SDS011;9487;50.892;6.906;2022-08-25T07:12:05;3.95;;;3.65;;
18716;SDS011;9487;50.892;6.906;2022-08-25T07:14:32;5.35;;;3.78;;
18716;SDS011;9487;50.892;6.906;2022-08-25T07:17:02;4.88;;;4.00;;
18716;SDS011;9487;50.892;6.906;2022-08-25T07:19:29;4.63;;;3.88;;
18716;SDS011;9487;50.892;6.906;2022-08-25T07:21:55;6.50;;;4.00;;
18716;SDS011;9487;50.892;6.906;2022-08-25T07:24:22;9.15;;;5.07;;
18716;SDS011;9487;50.892;6.906;2022-08-25T07:26:49;4.60;;;4.20;;
18716;SDS011;9487;50.892;6.906;2022-08-25T07:29:18;6.55;;;4.00;;
18716;SDS011;9487;50.892;6.906;2022-08-25T07:31:46;5.57;;;4.80;;
18716;SDS011;9487;50.892;6.906;2022-08-25T07:34:14;6.13;;;4.40;;
18716;SDS011;9487;50.892;6.906;2022-08-25T07:36:59;4.95;;;4.25;;
18716;SDS011;9487;50.892;6.906;2022-08-25T07:39:29;7.40;;;4.65;;
18716;SDS011;9487;50.892;6.906;2022-08-25T07:41:56;5.72;;;4.05;;
18716;SDS011;9487;50.892;6.906;2022-08-25T07:44:23;5.00;;;3.83;;
18716;SDS011;9487;50.892;6.906;2022-08-25T07:46:51;9.43;;;4.30;;
18716;SDS011;9487;50.892;6.906;2022-08-25T07:49:20;5.15;;;4.18;;
18716;SDS011;9487;50.892;6.906;2022-08-25T07:51:48;6.53;;;4.35;;
18716;SDS011;9487;50.892;6.906;2022-08-25T07:54:16;4.20;;;3.80;;
18716;SDS011;9487;50.892;6.906;2022-08-25T07:56:43;4.25;;;3.85;;
18716;SDS011;9487;50.892;6.906;2022-08-25T07:59:10;6.25;;;4.20;;
18716;SDS011;9487;50.892;6.906;2022-08-25T08:01:37;4.63;;;4.22;;
18716;SDS011;9487;50.892;6.906;2022-08-25T08:04:04;5.20;;;4.70;;
18716;SDS011;9487;50.892;6.906;2022-08-25T08:06:32;5.07;;;4.43;;
18716;SDS011;9487;50.892;6.906;2022-08-25T08:08:59;4.72;;;4.20;;
18716;SDS011;9487;50.892;6.906;2022-08-25T08:11:27;4.75;;;4.32;;
18716;SDS011;9487;50.892;6.906;2022-08-25T08:13:56;5.00;;;4.45;;
18716;SDS011;9487;50.892;6.906;2022-08-25T08:16:24;5.50;;;4.20;;
18716;SDS011;9487;50.892;6.906;2022-08-25T08:18:52;4.50;;;4.10;;
18716;SDS011;9487;50.892;6.906;2022-08-25T08:21:22;5.03;;;4.30;;
18716;SDS011;9487;50.892;6.906;2022-08-25T08:23:52;4.63;;;4.18;;
18716;SDS011;9487;50.892;6.906;2022-08-25T08:26:20;4.80;;;4.30;;
18716;SDS011;9487;50.892;6.906;2022-08-25T08:28:48;6.72;;;4.40;;
18716;SDS011;9487;50.892;6.906;2022-08-25T08:31:15;7.45;;;4.53;;
18716;SDS011;9487;50.892;6.906;2022-08-25T08:33:44;5.00;;;4.50;;
18716;SDS011;9487;50.892;6.906;2022-08-25T08:36:11;5.22;;;4.75;;
18716;SDS011;9487;50.892;6.906;2022-08-25T08:38:39;5.18;;;4.55;;
18716;SDS011;9487;50.892;6.906;2022-08-25T08:41:13;7.68;;;4.53;;
18716;SDS011;9487;50.892;6.906;2022-08-25T08:44:21;4.88;;;4.10;;
18716;SDS011;9487;50.892;6.906;2022-08-25T08:46:59;6.80;;;4.32;;
18716;SDS011;9487;50.892;6.906;2022-08-25T08:49:30;5.20;;;4.70;;
18716;SDS011;9487;50.892;6.906;2022-08-25T08:52:03;5.85;;;4.85;;
18716;SDS011;9487;50.892;6.906;2022-08-25T08:54:33;4.93;;;4.10;;
18716;SDS011;9487;50.892;6.906;2022-08-25T08:57:07;5.20;;;4.35;;
18716;SDS011;9487;50.892;6.906;2022-08-25T08:59:40;6.20;;;4.75;;
18716;SDS011;9487;50.892;6.906;2022-08-25T09:02:16;5.03;;;4.50;;
18716;SDS011;9487;50.892;6.906;2022-08-25T09:04:50;6.25;;;4.55;;
18716;SDS011;9487;50.892;6.906;2022-08-25T09:07:21;6.80;;;4.60;;
18716;SDS011;9487;50.892;6.906;2022-08-25T09:09:52;4.70;;;4.30;;
18716;SDS011;9487;50.892;6.906;2022-08-25T09:12:22;4.53;;;4.00;;
18716;SDS011;9487;50.892;6.906;2022-08-25T09:15:00;9.32;;;4.05;;
18716;SDS011;9487;50.892;6.906;2022-08-25T09:20:33;4.45;;;3.60;;
18716;SDS011;9487;50.892;6.906;2022-08-25T09:23:11;5.68;;;4.03;;
18716;SDS011;9487;50.892;6.906;2022-08-25T09:25:50;4.47;;;3.33;;
18716;SDS011;9487;50.892;6.906;2022-08-25T09:28:27;4.55;;;3.80;;
18716;SDS011;9487;50.892;6.906;2022-08-25T09:30:57;4.22;;;3.80;;
18716;SDS011;9487;50.892;6.906;2022-08-25T09:33:26;4.18;;;3.80;;
18716;SDS011;9487;50.892;6.906;2022-08-25T09:35:56;4.15;;;3.63;;
18716;SDS011;9487;50.892;6.906;2022-08-25T09:38:23;4.30;;;3.90;;
18716;SDS011;9487;50.892;6.906;2022-08-25T09:40:53;5.13;;;3.53;;
18716;SDS011;9487;50.892;6.906;2022-08-25T09:43:23;3.90;;;3.60;;
18716;SDS011;9487;50.892;6.906;2022-08-25T09:45:58;4.70;;;3.80;;
18716;SDS011;9487;50.892;6.906;2022-08-25T09:48:27;6.45;;;4.15;;
18716;SDS011;9487;50.892;6.906;2022-08-25T09:51:07;6.18;;;3.90;;
18716;SDS011;9487;50.892;6.906;2022-08-25T09:53:42;4.25;;;3.80;;
18716;SDS011;9487;50.892;6.906;2022-08-25T09:56:15;5.28;;;4.00;;
18716;SDS011;9487;50.892;6.906;2022-08-25T09:58:47;5.05;;;4.55;;
18716;SDS011;9487;50.892;6.906;2022-08-25T10:01:14;4.60;;;3.97;;
18716;SDS011;9487;50.892;6.906;2022-08-25T10:03:53;6.15;;;3.90;;
18716;SDS011;9487;50.892;6.906;2022-08-25T10:06:21;5.85;;;4.32;;
18716;SDS011;9487;50.892;6.906;2022-08-25T10:08:53;4.20;;;3.90;;
18716;SDS011;9487;50.892;6.906;2022-08-25T10:11:34;4.65;;;4.20;;
18716;SDS011;9487;50.892;6.906;2022-08-25T10:14:07;5.15;;;3.88;;
18716;SDS011;9487;50.892;6.906;2022-08-25T10:16:42;3.80;;;3.50;;
18716;SDS011;9487;50.892;6.906;2022-08-25T10:19:11;6.82;;;3.88;;
18716;SDS011;9487;50.892;6.906;2022-08-25T10:21:39;4.28;;;3.90;;
18716;SDS011;9487;50.892;6.906;2022-08-25T10:24:08;4.40;;;4.00;;
18716;SDS011;9487;50.892;6.906;2022-08-25T10:26:40;4.97;;;4.07;;
18716;SDS011;9487;50.892;6.906;2022-08-25T10:29:22;4.93;;;4.00;;
18716;SDS011;9487;50.892;6.906;2022-08-25T10:31:58;4.28;;;3.88;;
18716;SDS011;9487;50.892;6.906;2022-08-25T10:34:33;4.40;;;4.00;;
18716;SDS011;9487;50.892;6.906;2022-08-25T10:37:09;4.63;;;3.75;;
18716;SDS011;9487;50.892;6.906;2022-08-25T10:39:44;5.07;;;4.25;;
18716;SDS011;9487;50.892;6.906;2022-08-25T10:42:21;5.03;;;4.18;;
18716;SDS011;9487;50.892;6.906;2022-08-25T10:45:05;6.55;;;4.15;;
18716;SDS011;9487;50.892;6.906;2022-08-25T10:48:03;4.25;;;3.92;;
18716;SDS011;9487;50.892;6.906;2022-08-25T10:50:39;4.20;;;3.63;;
18716;SDS011;9487;50.892;6.906;2022-08-25T10:53:13;3.88;;;3.47;;
18716;SDS011;9487;50.892;6.906;2022-08-25T10:55:48;4.35;;;3.75;;
18716;SDS011;9487;50.892;6.906;2022-08-25T10:58:41;4.63;;;3.55;;
18716;SDS011;9487;50.892;6.906;2022-08-25T11:01:46;3.90;;;3.60;;
18716;SDS011;9487;50.892;6.906;2022-08-25T11:04:26;3.88;;;3.58;;
18716;SDS011;9487;50.892;6.906;2022-08-25T11:07:02;5.40;;;3.58;;
18716;SDS011;9487;50.892;6.906;2022-08-25T11:09:33;4.40;;;4.00;;
18716;SDS011;9487;50.892;6.906;2022-08-25T11:12:04;5.22;;;3.90;;
18716;SDS011;9487;50.892;6.906;2022-08-25T11:14:35;5.53;;;4.00;;
18716;SDS011;9487;50.892;6.906;2022-08-25T11:17:09;4.60;;;3.97;;
18716;SDS011;9487;50.892;6.906;2022-08-25T11:19:42;4.72;;;3.70;;
18716;SDS011;9487;50.892;6.906;2022-08-25T11:22:13;4.47;;;4.07;;
18716;SDS011;9487;50.892;6.906;2022-08-25T11:24:51;3.95;;;3.65;;
18716;SDS011;9487;50.892;6.906;2022-08-25T11:27:27;4.53;;;4.00;;
18716;SDS011;9487;50.892;6.906;2022-08-25T11:30:01;4.50;;;4.10;;
18716;SDS011;9487;50.892;6.906;2022-08-25T11:32:32;4.07;;;3.78;;
18716;SDS011;9487;50.892;6.906;2022-08-25T11:35:00;5.07;;;4.20;;
18716;SDS011;9487;50.892;6.906;2022-08-25T11:37:30;4.45;;;3.60;;
18716;SDS011;9487;50.892;6.906;2022-08-25T11:40:03;6.50;;;3.80;;
18716;SDS011;9487;50.892;6.906;2022-08-25T11:42:58;6.38;;;4.25;;
18716;SDS011;9487;50.892;6.906;2022-08-25T11:45:50;4.40;;;4.00;;
18716;SDS011;9487;50.892;6.906;2022-08-25T11:48:29;4.45;;;4.03;;
18716;SDS011;9487;50.892;6.906;2022-08-25T11:51:05;4.72;;;4.30;;
18716;SDS011;9487;50.892;6.906;2022-08-25T11:53:34;8.13;;;4.47;;
18716;SDS011;9487;50.892;6.906;2022-08-25T11:56:04;4.15;;;3.75;;
18716;SDS011;9487;50.892;6.906;2022-08-25T11:58:37;4.93;;;3.83;;
18716;SDS011;9487;50.892;6.906;2022-08-25T12:04:12;3.95;;;3.20;;
18716;SDS011;9487;50.892;6.906;2022-08-25T12:13:03;3.72;;;3.42;;
18716;SDS011;9487;50.892;6.906;2022-08-25T12:15:54;4.30;;;3.20;;
18716;SDS011;9487;50.892;6.906;2022-08-25T12:18:42;4.47;;;3.40;;
18716;SDS011;9487;50.892;6.906;2022-08-25T12:24:08;4.03;;;3.72;;
18716;SDS011;9487;50.892;6.906;2022-08-25T12:26:40;6.38;;;3.97;;
18716;SDS011;9487;50.892;6.906;2022-08-25T12:29:15;4.35;;;3.35;;
18716;SDS011;9487;50.892;6.906;2022-08-25T12:31:56;4.03;;;3.63;;
18716;SDS011;9487;50.892;6.906;2022-08-25T12:34:40;4.72;;;4.10;;
18716;SDS011;9487;50.892;6.906;2022-08-25T12:37:26;5.88;;;4.05;;
18716;SDS011;9487;50.892;6.906;2022-08-25T12:39:56;4.30;;;3.97;;
18716;SDS011;9487;50.892;6.906;2022-08-25T12:42:28;3.97;;;3.67;;
18716;SDS011;9487;50.892;6.906;2022-08-25T12:45:08;4.63;;;4.22;;
18716;SDS011;9487;50.892;6.906;2022-08-25T12:50:59;4.43;;;3.35;;
18716;SDS011;9487;50.892;6.906;2022-08-25T12:53:32;4.28;;;3.60;;
18716;SDS011;9487;50.892;6.906;2022-08-25T12:56:02;4.00;;;3.70;;
18716;SDS011;9487;50.892;6.906;2022-08-25T12:58:34;4.18;;;3.78;;
18716;SDS011;9487;50.892;6.906;2022-08-25T13:01:14;5.00;;;4.13;;
18716;SDS011;9487;50.892;6.906;2022-08-25T13:03:58;5.10;;;4.50;;
18716;SDS011;9487;50.892;6.906;2022-08-25T13:06:57;5.50;;;4.43;;
18716;SDS011;9487;50.892;6.906;2022-08-25T13:09:44;5.93;;;4.15;;
18716;SDS011;9487;50.892;6.906;2022-08-25T13:12:29;5.05;;;4.65;;
18716;SDS011;9487;50.892;6.906;2022-08-25T13:14:59;4.47;;;4.07;;
18716;SDS011;9487;50.892;6.906;2022-08-25T13:17:26;6.68;;;4.25;;
18716;SDS011;9487;50.892;6.906;2022-08-25T13:20:10;4.50;;;4.10;;
18716;SDS011;9487;50.892;6.906;2022-08-25T13:22:43;4.50;;;4.10;;
18716;SDS011;9487;50.892;6.906;2022-08-25T13:25:17;4.65;;;4.25;;
18716;SDS011;9487;50.892;6.906;2022-08-25T13:27:47;4.38;;;4.00;;
18716;SDS011;9487;50.892;6.906;2022-08-25T13:30:21;6.22;;;4.57;;
18716;SDS011;9487;50.892;6.906;2022-08-25T13:32:51;4.45;;;4.07;;
18716;SDS011;9487;50.892;6.906;2022-08-25T13:35:19;5.22;;;4.57;;
18716;SDS011;9487;50.892;6.906;2022-08-25T13:37:48;4.68;;;4.10;;
18716;SDS011;9487;50.892;6.906;2022-08-25T13:40:15;4.57;;;4.28;;
18716;SDS011;9487;50.892;6.906;2022-08-25T13:42:47;5.50;;;5.00;;
18716;SDS011;9487;50.892;6.906;2022-08-25T13:45:17;5.18;;;4.45;;
18716;SDS011;9487;50.892;6.906;2022-08-25T13:47:46;4.40;;;4.10;;
18716;SDS011;9487;50.892;6.906;2022-08-25T13:50:16;7.10;;;4.50;;
18716;SDS011;9487;50.892;6.906;2022-08-25T13:52:48;4.50;;;4.20;;
18716;SDS011;9487;50.892;6.906;2022-08-25T13:55:20;4.40;;;3.83;;
18716;SDS011;9487;50.892;6.906;2022-08-25T13:57:48;5.03;;;4.22;;
18716;SDS011;9487;50.892;6.906;2022-08-25T14:00:24;4.40;;;4.00;;
18716;SDS011;9487;50.892;6.906;2022-08-25T14:02:54;4.25;;;3.65;;
18716;SDS011;9487;50.892;6.906;2022-08-25T14:05:31;6.38;;;3.75;;
18716;SDS011;9487;50.892;6.906;2022-08-25T14:08:03;5.60;;;3.88;;
18716;SDS011;9487;50.892;6.906;2022-08-25T14:10:37;4.63;;;3.80;;
18716;SDS011;9487;50.892;6.906;2022-08-25T14:13:07;3.90;;;3.60;;
18716;SDS011;9487;50.892;6.906;2022-08-25T14:15:37;4.05;;;3.70;;
18716;SDS011;9487;50.892;6.906;2022-08-25T14:18:05;4.30;;;3.90;;
18716;SDS011;9487;50.892;6.906;2022-08-25T14:20:36;5.13;;;3.50;;
18716;SDS011;9487;50.892;6.906;2022-08-25T14:23:09;4.25;;;3.58;;
18716;SDS011;9487;50.892;6.906;2022-08-25T14:25:41;4.15;;;3.85;;
18716;SDS011;9487;50.892;6.906;2022-08-25T14:28:09;4.70;;;4.22;;
18716;SDS011;9487;50.892;6.906;2022-08-25T14:30:38;4.55;;;3.80;;
18716;SDS011;9487;50.892;6.906;2022-08-25T14:33:07;3.95;;;3.55;;
18716;SDS011;9487;50.892;6.906;2022-08-25T14:35:34;4.50;;;3.60;;
18716;SDS011;9487;50.892;6.906;2022-08-25T14:38:02;4.07;;;3.78;;
18716;SDS011;9487;50.892;6.906;2022-08-25T14:40:34;5.10;;;3.65;;
18716;SDS011;9487;50.892;6.906;2022-08-25T14:43:02;3.85;;;3.40;;
18716;SDS011;9487;50.892;6.906;2022-08-25T14:45:29;3.50;;;3.08;;
18716;SDS011;9487;50.892;6.906;2022-08-25T14:47:57;3.97;;;3.67;;
18716;SDS011;9487;50.892;6.906;2022-08-25T14:50:30;3.60;;;3.30;;
18716;SDS011;9487;50.892;6.906;2022-08-25T14:52:57;3.40;;;3.10;;
18716;SDS011;9487;50.892;6.906;2022-08-25T14:55:25;4.03;;;3.40;;
18716;SDS011;9487;50.892;6.906;2022-08-25T14:57:52;5.53;;;3.45;;
18716;SDS011;9487;50.892;6.906;2022-08-25T15:00:20;3.70;;;3.40;;
18716;SDS011;9487;50.892;6.906;2022-08-25T15:02:48;4.75;;;3.72;;
18716;SDS011;9487;50.892;6.906;2022-08-25T15:05:18;4.00;;;3.70;;
18716;SDS011;9487;50.892;6.906;2022-08-25T15:07:48;3.90;;;3.60;;
18716;SDS011;9487;50.892;6.906;2022-08-25T15:10:34;5.00;;;3.55;;
18716;SDS011;9487;50.892;6.906;2022-08-25T15:13:00;3.50;;;3.20;;
18716;SDS011;9487;50.892;6.906;2022-08-25T15:15:29;3.67;;;3.40;;
18716;SDS011;9487;50.892;6.906;2022-08-25T15:17:57;3.72;;;3.42;;
18716;SDS011;9487;50.892;6.906;2022-08-25T15:20:24;3.97;;;3.78;;
18716;SDS011;9487;50.892;6.906;2022-08-25T15:22:51;3.88;;;3.55;;
18716;SDS011;9487;50.892;6.906;2022-08-25T15:25:18;3.60;;;3.30;;
18716;SDS011;9487;50.892;6.906;2022-08-25T15:27:46;3.40;;;3.20;;
18716;SDS011;9487;50.892;6.906;2022-08-25T15:30:13;3.75;;;3.33;;
18716;SDS011;9487;50.892;6.906;2022-08-25T15:32:42;3.75;;;3.35;;
18716;SDS011;9487;50.892;6.906;2022-08-25T15:35:09;3.33;;;3.13;;
18716;SDS011;9487;50.892;6.906;2022-08-25T15:37:36;4.00;;;3.05;;
18716;SDS011;9487;50.892;6.906;2022-08-25T15:40:04;3.22;;;3.03;;